Time;durP1;ratioP1;P1;durP2;ratioP2;P2;SDS_P1;SDS_P2;PMS_P1;PMS_P2;Temp;Humidity;BMP_temperature;BMP_pressure;BME280_temperature;BME280_humidity;BME280_pressure;Samples;Min_cycle;Max_cycle;Signal;HPM_P1;HPM_P2
2021/12/09 00:00:47;;;;;;;10.15;5.07;;;;;;;0.03;100.00;99170.00;5078293;27;20030;-56
2021/12/09 00:03:13;;;;;;;12.38;5.35;;;;;;;0.35;100.00;99219.00;5066746;28;20020;-57
2021/12/09 00:05:43;;;;;;;10.68;4.28;;;;;;;0.34;100.00;99221.63;5065337;28;20034;-57
2021/12/09 00:08:08;;;;;;;8.90;4.75;;;;;;;0.31;100.00;99219.13;5066187;28;20032;-57
2021/12/09 00:10:35;;;;;;;15.57;5.13;;;;;;;0.29;100.00;99221.75;5067202;28;20878;-56
2021/12/09 00:13:02;;;;;;;10.57;5.00;;;;;;;0.29;100.00;99215.75;5066165;28;20027;-57
2021/12/09 00:15:27;;;;;;;11.45;5.03;;;;;;;0.30;100.00;99225.19;5066762;28;20537;-57
2021/12/09 00:17:53;;;;;;;11.23;5.60;;;;;;;0.32;100.00;99220.81;5058964;28;20024;-57
2021/12/09 00:20:18;;;;;;;12.50;4.80;;;;;;;0.05;100.00;99163.03;5059321;28;20560;-57
2021/12/09 00:22:45;;;;;;;9.07;4.75;;;;;;;0.36;100.00;99217.28;5065562;28;20034;-57
2021/12/09 00:25:11;;;;;;;8.40;4.72;;;;;;;0.15;100.00;99189.44;5064478;28;20904;-57
2021/12/09 00:27:36;;;;;;;9.57;4.63;;;;;;;0.26;100.00;99218.41;5079177;27;20039;-57
2021/12/09 00:30:05;;;;;;;17.75;5.60;;;;;;;0.24;100.00;99220.19;5066706;28;20023;-57
2021/12/09 00:32:31;;;;;;;19.77;5.53;;;;;;;0.20;100.00;99229.78;5052436;28;20031;-57
2021/12/09 00:34:57;;;;;;;10.93;4.85;;;;;;;0.21;100.00;99222.84;5048856;28;20083;-57
2021/12/09 00:39:51;;;;;;;9.70;5.35;;;;;;;0.39;100.00;99230.09;5066153;28;20201;-57
2021/12/09 00:42:18;;;;;;;11.63;5.30;;;;;;;0.51;100.00;99230.59;5064675;28;20034;-57
2021/12/09 00:44:43;;;;;;;10.25;5.05;;;;;;;0.59;100.00;99227.78;5065471;28;20020;-56
2021/12/09 00:47:09;;;;;;;15.40;5.95;;;;;;;0.71;100.00;99226.59;5077909;28;20954;-57
2021/12/09 00:49:34;;;;;;;8.55;4.95;;;;;;;0.45;100.00;99173.09;5065718;28;20024;-57
2021/12/09 00:52:00;;;;;;;15.40;5.78;;;;;;;0.85;100.00;99230.44;5078867;28;20761;-56
2021/12/09 00:54:26;;;;;;;17.10;5.25;;;;;;;0.92;100.00;99236.28;5076909;28;20957;-56
2021/12/09 00:56:51;;;;;;;14.05;5.05;;;;;;;0.97;100.00;99235.28;5074436;28;20028;-56
2021/12/09 00:59:17;;;;;;;10.40;4.78;;;;;;;0.94;100.00;99235.38;5057566;28;20092;-56
2021/12/09 01:01:42;;;;;;;11.10;4.78;;;;;;;0.87;100.00;99235.59;5067562;28;20092;-56
2021/12/09 01:04:08;;;;;;;7.00;4.72;;;;;;;0.81;100.00;99238.38;5069680;28;20776;-56
2021/12/09 01:06:33;;;;;;;9.43;5.38;;;;;;;0.76;100.00;99229.88;5070300;28;20020;-56
2021/12/09 01:08:58;;;;;;;10.85;4.80;;;;;;;0.77;100.00;99232.44;5068180;28;20980;-55
2021/12/09 01:11:24;;;;;;;13.50;5.63;;;;;;;0.71;100.00;99226.59;5069490;28;20024;-56
2021/12/09 01:13:49;;;;;;;13.95;5.65;;;;;;;0.70;100.00;99230.94;5076600;27;20976;-56
2021/12/09 01:16:15;;;;;;;13.93;5.15;;;;;;;0.65;100.00;99230.19;5076975;27;20134;-56
2021/12/09 01:18:41;;;;;;;11.13;4.65;;;;;;;0.57;100.00;99229.59;5049906;28;20853;-56
2021/12/09 01:21:06;;;;;;;7.15;4.28;;;;;;;0.49;100.00;99232.38;5051025;28;20846;-55
2021/12/09 01:23:32;;;;;;;13.30;5.13;;;;;;;0.44;100.00;99225.66;5069867;28;20104;-56
2021/12/09 01:26:02;;;;;;;7.03;4.53;;;;;;;0.41;100.00;99236.06;5070847;28;20885;-55
2021/12/09 01:28:31;;;;;;;8.85;4.43;;;;;;;0.39;100.00;99230.09;5069193;28;20088;-56
2021/12/09 01:31:02;;;;;;;14.80;5.10;;;;;;;0.41;100.00;99231.75;5063102;28;20902;-56
2021/12/09 01:33:29;;;;;;;10.60;3.92;;;;;;;0.44;100.00;99236.00;5060038;28;20026;-56
2021/12/09 01:35:55;;;;;;;15.70;5.22;;;;;;;0.43;100.00;99242.06;5077042;27;20907;-56
2021/12/09 01:38:22;;;;;;;9.02;4.50;;;;;;;0.43;100.00;99232.56;5061786;27;20063;-58
2021/12/09 01:40:48;;;;;;;9.73;4.05;;;;;;;0.32;100.00;99218.25;5062820;28;20101;-56
2021/12/09 01:43:13;;;;;;;12.10;4.20;;;;;;;0.41;100.00;99243.81;5061683;28;20035;-56
2021/12/09 01:45:39;;;;;;;12.98;4.93;;;;;;;0.14;100.00;99214.44;5055891;28;20055;-56
2021/12/09 01:48:05;;;;;;;10.73;4.50;;;;;;;0.21;100.00;99225.44;5068702;28;20875;-56
2021/12/09 01:50:32;;;;;;;14.43;4.78;;;;;;;0.31;100.00;99250.13;5070775;27;20128;-56
2021/12/09 01:52:58;;;;;;;7.32;4.22;;;;;;;-0.04;100.00;99194.28;5068689;27;20122;-56
2021/12/09 01:55:25;;;;;;;14.05;4.32;;;;;;;0.28;100.00;99242.47;5068450;28;20098;-56
2021/12/09 01:57:51;;;;;;;8.02;4.03;;;;;;;0.27;100.00;99245.94;5068400;28;20110;-56
2021/12/09 02:00:22;;;;;;;13.73;4.57;;;;;;;0.28;100.00;99255.38;5058525;28;20032;-56
2021/12/09 02:02:47;;;;;;;7.65;3.72;;;;;;;0.24;100.00;99246.00;5050042;28;20062;-56
2021/12/09 02:05:13;;;;;;;10.23;4.18;;;;;;;0.17;100.00;99239.34;5069337;28;20019;-56
2021/12/09 02:07:39;;;;;;;12.02;4.05;;;;;;;0.12;100.00;99241.19;5055342;28;20920;-56
2021/12/09 02:10:07;;;;;;;20.88;4.45;;;;;;;-0.03;100.00;99219.19;5068882;27;20019;-56
2021/12/09 02:12:33;;;;;;;7.50;3.67;;;;;;;0.09;100.00;99238.69;5084122;27;20050;-56
2021/12/09 02:15:00;;;;;;;10.93;4.00;;;;;;;0.12;100.00;99236.03;5084077;27;20019;-56
2021/12/09 02:17:29;;;;;;;8.13;3.75;;;;;;;0.09;100.00;99241.28;5053252;28;20032;-56
2021/12/09 02:20:00;;;;;;;8.73;4.00;;;;;;;0.12;100.00;99241.19;5049137;28;20070;-56
2021/12/09 02:22:30;;;;;;;10.13;4.32;;;;;;;0.12;100.00;99248.94;5032139;28;20046;-56
2021/12/09 02:24:57;;;;;;;9.23;4.13;;;;;;;0.17;100.00;99241.94;5062893;28;20043;-56
2021/12/09 02:27:24;;;;;;;7.47;3.67;;;;;;;0.18;100.00;99235.84;5067634;28;20016;-56
2021/12/09 02:29:51;;;;;;;9.63;3.85;;;;;;;-0.13;100.00;99174.72;5068565;28;20034;-56
2021/12/09 02:32:16;;;;;;;12.10;4.57;;;;;;;0.23;100.00;99234.84;5055285;28;20105;-56
2021/12/09 02:34:42;;;;;;;12.02;3.67;;;;;;;0.22;100.00;99230.56;5068501;28;20027;-56
2021/12/09 02:37:10;;;;;;;7.70;3.33;;;;;;;0.15;100.00;99226.47;5068161;28;20031;-56
2021/12/09 02:39:35;;;;;;;6.80;3.67;;;;;;;0.16;100.00;99227.31;5067583;28;20962;-56
2021/12/09 02:42:02;;;;;;;13.40;5.50;;;;;;;0.12;100.00;99223.97;5068072;28;20027;-56
2021/12/09 02:44:27;;;;;;;11.30;4.97;;;;;;;0.10;100.00;99222.31;5072161;27;20126;-56
2021/12/09 02:46:55;;;;;;;9.93;4.05;;;;;;;0.12;100.00;99225.69;5068163;28;20015;-56
2021/12/09 02:49:23;;;;;;;9.77;4.45;;;;;;;0.15;100.00;99230.78;5067473;28;20028;-56
2021/12/09 02:51:50;;;;;;;5.45;3.20;;;;;;;0.10;100.00;99228.34;5062026;28;20035;-57
2021/12/09 02:54:17;;;;;;;12.35;3.60;;;;;;;0.05;100.00;99224.16;5054805;28;20020;-56
2021/12/09 02:56:48;;;;;;;12.10;4.18;;;;;;;0.04;100.00;99228.47;5067295;28;20059;-56
2021/12/09 02:59:13;;;;;;;6.30;3.70;;;;;;;0.00;100.00;99225.13;5067060;27;20032;-56
2021/12/09 03:01:58;;;;;;;7.05;3.15;;;;;;;-0.01;100.00;99236.34;5066620;28;20119;-56
2021/12/09 03:04:27;;;;;;;12.65;4.60;;;;;;;-0.04;100.00;99236.44;5063280;27;20031;-56
2021/12/09 03:06:54;;;;;;;12.40;3.90;;;;;;;-0.01;100.00;99236.34;5089210;27;20023;-56
2021/12/09 03:09:20;;;;;;;7.43;3.60;;;;;;;-0.04;100.00;99244.19;5066996;27;20054;-56
2021/12/09 03:11:53;;;;;;;9.07;3.58;;;;;;;-0.08;100.00;99239.97;5073036;27;20143;-56
2021/12/09 03:14:18;;;;;;;11.15;3.95;;;;;;;-0.20;100.00;99223.94;5084365;27;20027;-56
2021/12/09 03:16:44;;;;;;;8.55;4.40;;;;;;;-0.17;100.00;99240.19;5082118;27;20055;-56
2021/12/09 03:19:09;;;;;;;11.10;3.55;;;;;;;-0.20;100.00;99240.28;5067025;28;20032;-56
2021/12/09 03:21:38;;;;;;;6.75;3.60;;;;;;;-0.19;100.00;99239.41;5067481;28;21002;-56
2021/12/09 03:24:06;;;;;;;7.90;3.92;;;;;;;-0.23;100.00;99239.50;5065837;28;20023;-56
2021/12/09 03:26:39;;;;;;;10.35;4.05;;;;;;;-0.25;100.00;99242.16;5067124;28;20085;-56
2021/12/09 03:29:07;;;;;;;12.23;4.05;;;;;;;-0.30;100.00;99243.97;5055330;28;20892;-56
2021/12/09 03:31:33;;;;;;;8.48;3.97;;;;;;;-0.32;100.00;99250.06;5067936;28;20020;-57
2021/12/09 03:33:59;;;;;;;10.07;3.95;;;;;;;-0.35;100.00;99251.00;5053081;28;20912;-57
2021/12/09 03:36:28;;;;;;;8.35;4.15;;;;;;;-0.89;100.00;99169.81;5067331;28;20138;-56
2021/12/09 03:38:57;;;;;;;11.75;4.93;;;;;;;-0.65;100.00;99203.59;5058641;27;20122;-56
2021/12/09 03:41:23;;;;;;;7.55;4.50;;;;;;;-0.34;100.00;99262.19;5062307;28;20024;-56
2021/12/09 03:43:48;;;;;;;6.75;3.75;;;;;;;-0.33;100.00;99254.38;5076168;27;20030;-56
2021/12/09 03:46:14;;;;;;;14.57;4.15;;;;;;;-0.35;100.00;99255.31;5067581;27;20897;-57
2021/12/09 03:48:39;;;;;;;5.63;3.88;;;;;;;-0.38;100.00;99256.25;5078519;27;20035;-56
2021/12/09 03:51:04;;;;;;;13.32;4.10;;;;;;;-0.36;100.00;99248.44;5048107;28;20957;-57
2021/12/09 03:53:30;;;;;;;9.30;4.47;;;;;;;-0.43;100.00;99250.34;5067571;28;20913;-57
2021/12/09 03:55:56;;;;;;;14.25;3.97;;;;;;;-0.45;100.00;99262.44;5066618;28;20093;-57
2021/12/09 03:58:21;;;;;;;12.55;4.15;;;;;;;-0.48;100.00;99267.69;5053229;28;20024;-57
2021/12/09 04:00:47;;;;;;;12.93;3.92;;;;;;;-0.49;100.00;99265.97;5072899;27;20112;-57
2021/12/09 04:03:12;;;;;;;8.35;3.90;;;;;;;-0.45;100.00;99270.19;5076233;27;20097;-57
2021/12/09 04:05:38;;;;;;;10.45;4.45;;;;;;;-0.43;100.00;99267.53;5068595;28;20851;-57
2021/12/09 04:08:04;;;;;;;12.80;4.57;;;;;;;-0.42;100.00;99262.34;5066800;28;20866;-57
2021/12/09 04:10:31;;;;;;;10.50;4.32;;;;;;;-0.42;100.00;99259.78;5066067;28;20533;-57
2021/12/09 04:12:57;;;;;;;9.07;3.67;;;;;;;-0.41;100.00;99271.81;5069668;27;20028;-57
2021/12/09 04:15:23;;;;;;;10.88;4.40;;;;;;;-0.42;100.00;99262.34;5083898;27;20051;-57
2021/12/09 04:17:48;;;;;;;11.40;4.55;;;;;;;-0.42;100.00;99266.66;5072273;27;20028;-56
2021/12/09 04:20:14;;;;;;;17.33;4.97;;;;;;;-0.38;100.00;99266.56;5065142;28;20497;-57
2021/12/09 04:22:41;;;;;;;13.07;4.28;;;;;;;-0.36;100.00;99266.50;5067169;28;20840;-57
2021/12/09 04:25:06;;;;;;;13.43;4.50;;;;;;;-0.36;100.00;99275.09;5047462;28;20023;-57
2021/12/09 04:27:33;;;;;;;10.75;4.47;;;;;;;-0.83;100.00;99203.19;5065923;28;20906;-57
2021/12/09 04:29:58;;;;;;;8.93;3.92;;;;;;;-0.40;100.00;99281.22;5066108;27;20034;-57
2021/12/09 04:32:23;;;;;;;10.18;4.90;;;;;;;-0.40;100.00;99288.09;5081377;28;20027;-57
2021/12/09 04:34:53;;;;;;;8.55;4.75;;;;;;;-0.40;100.00;99295.84;5071753;28;20817;-57
2021/12/09 04:37:19;;;;;;;9.75;4.18;;;;;;;-0.41;100.00;99296.75;5078325;27;20020;-57
2021/12/09 04:39:45;;;;;;;13.63;4.57;;;;;;;-0.43;100.00;99289.03;5084251;27;20031;-57
2021/12/09 04:42:10;;;;;;;11.88;5.15;;;;;;;-0.46;100.00;99299.44;5075607;27;20023;-57
2021/12/09 04:44:35;;;;;;;10.75;4.85;;;;;;;-0.46;100.00;99298.56;5072805;28;20901;-57
2021/12/09 04:47:01;;;;;;;11.52;4.75;;;;;;;-0.39;100.00;99298.41;5072943;27;20024;-57
2021/12/09 04:49:27;;;;;;;9.93;4.70;;;;;;;-0.40;100.00;99299.28;5069620;28;20027;-57
2021/12/09 04:51:52;;;;;;;11.57;4.60;;;;;;;-0.38;100.00;99302.69;5067686;27;20033;-56
2021/12/09 04:54:18;;;;;;;13.52;5.15;;;;;;;-0.35;100.00;99306.91;5080661;27;20035;-57
2021/12/09 04:56:43;;;;;;;10.25;4.72;;;;;;;-0.36;100.00;99303.47;5072230;28;20089;-56
2021/12/09 04:59:09;;;;;;;11.45;4.82;;;;;;;-0.37;100.00;99300.97;5072267;28;20906;-56
2021/12/09 05:01:35;;;;;;;10.73;5.53;;;;;;;-0.39;100.00;99300.97;5064372;28;20112;-56
2021/12/09 05:04:01;;;;;;;10.95;5.10;;;;;;;-0.37;100.00;99299.19;5049843;28;20221;-57
2021/12/09 05:06:26;;;;;;;17.38;5.63;;;;;;;-0.42;100.00;99295.03;5071120;28;20100;-57
2021/12/09 05:08:52;;;;;;;15.52;5.00;;;;;;;-0.43;100.00;99301.94;5059035;28;20043;-57
2021/12/09 05:13:52;;;;;;;13.30;5.60;;;;;;;-0.39;100.00;99311.31;5065190;27;20040;-57
2021/12/09 05:16:17;;;;;;;10.32;5.00;;;;;;;-0.35;100.00;99301.75;5050344;28;20023;-57
2021/12/09 05:18:44;;;;;;;15.55;5.15;;;;;;;-0.37;100.00;99303.53;5072487;28;20020;-57
2021/12/09 05:21:12;;;;;;;14.73;5.03;;;;;;;-0.40;100.00;99296.69;5073110;27;20032;-57
2021/12/09 05:23:41;;;;;;;10.27;5.85;;;;;;;-0.39;100.00;99294.97;5082740;27;20912;-56
2021/12/09 05:26:08;;;;;;;17.85;5.75;;;;;;;-0.36;100.00;99295.75;5081511;27;20130;-57
2021/12/09 05:28:36;;;;;;;11.55;5.68;;;;;;;-0.32;100.00;99294.78;5045073;28;20094;-57
2021/12/09 05:33:48;;;;;;;13.63;6.00;;;;;;;-0.27;100.00;99305.84;5052309;28;20129;-57
2021/12/09 05:36:14;;;;;;;13.63;5.50;;;;;;;-0.24;100.00;99305.78;5065628;28;20023;-57
2021/12/09 05:38:39;;;;;;;13.38;5.78;;;;;;;-0.24;100.00;99313.53;5072679;28;20066;-57
2021/12/09 05:41:05;;;;;;;18.88;6.15;;;;;;;-0.21;100.00;99320.34;5073063;28;20034;-57
2021/12/09 05:43:30;;;;;;;14.02;6.65;;;;;;;-0.19;100.00;99326.31;5072178;27;20840;-56
2021/12/09 05:45:56;;;;;;;22.10;6.93;;;;;;;-0.19;100.00;99318.56;5059031;28;20020;-56
2021/12/09 05:48:21;;;;;;;17.45;6.18;;;;;;;-0.15;100.00;99318.47;5069010;28;20034;-56
2021/12/09 05:50:47;;;;;;;11.55;5.93;;;;;;;-0.13;100.00;99318.41;5069301;28;20028;-55
2021/12/09 05:53:12;;;;;;;15.40;5.35;;;;;;;-0.10;100.00;99324.34;5069324;28;20023;-55
2021/12/09 05:55:43;;;;;;;15.07;6.25;;;;;;;-0.09;100.00;99326.03;5057296;28;20062;-56
2021/12/09 05:58:09;;;;;;;18.42;6.80;;;;;;;-0.36;100.00;99284.56;5068656;28;20120;-56
2021/12/09 06:00:35;;;;;;;15.20;6.55;;;;;;;-0.03;100.00;99341.38;5081508;27;20955;-56
2021/12/09 06:03:00;;;;;;;24.55;7.20;;;;;;;-0.02;100.00;99337.06;5055598;28;20054;-56
2021/12/09 06:05:26;;;;;;;17.27;7.90;;;;;;;0.06;100.00;99344.63;5070567;27;20038;-56
2021/12/09 06:07:51;;;;;;;13.82;6.75;;;;;;;0.06;100.00;99344.63;5054117;28;20806;-56
2021/12/09 06:10:16;;;;;;;16.65;7.00;;;;;;;0.04;100.00;99341.22;5068041;28;20034;-56
2021/12/09 06:12:42;;;;;;;18.58;6.93;;;;;;;0.04;100.00;99346.38;5069660;28;20851;-56
2021/12/09 06:15:08;;;;;;;15.60;7.20;;;;;;;0.08;100.00;99342.84;5068873;28;20024;-56
2021/12/09 06:17:33;;;;;;;17.88;7.82;;;;;;;0.06;100.00;99348.06;5067840;28;21007;-56
2021/12/09 06:19:59;;;;;;;15.45;7.25;;;;;;;0.07;100.00;99346.34;5069194;28;20036;-56
2021/12/09 06:22:24;;;;;;;13.05;7.13;;;;;;;0.13;100.00;99351.34;5068032;28;20181;-56
2021/12/09 06:24:49;;;;;;;15.77;7.00;;;;;;;0.09;100.00;99344.56;5080184;27;20051;-56
2021/12/09 06:27:15;;;;;;;15.25;7.05;;;;;;;0.09;100.00;99345.41;5068748;27;20027;-56
2021/12/09 06:29:40;;;;;;;15.00;7.20;;;;;;;0.12;100.00;99340.16;5080950;27;20031;-56
2021/12/09 06:32:06;;;;;;;17.20;7.35;;;;;;;0.09;100.00;99340.25;5067689;28;21103;-56
2021/12/09 06:34:32;;;;;;;21.88;8.15;;;;;;;0.09;100.00;99354.88;5067862;27;20941;-56
2021/12/09 06:36:58;;;;;;;14.43;7.72;;;;;;;-0.10;100.00;99319.19;5068849;28;20028;-56
2021/12/09 06:39:23;;;;;;;20.38;8.20;;;;;;;0.06;100.00;99344.63;5067360;28;20136;-56
2021/12/09 06:41:48;;;;;;;14.50;7.60;;;;;;;0.09;100.00;99341.97;5058485;28;20032;-56
2021/12/09 06:44:14;;;;;;;14.27;7.65;;;;;;;0.07;100.00;99346.34;5074840;27;20030;-56
2021/12/09 06:46:39;;;;;;;12.57;7.25;;;;;;;0.05;100.00;99340.34;5053340;28;20861;-55
2021/12/09 06:49:05;;;;;;;14.07;7.13;;;;;;;0.05;100.00;99348.09;5054648;28;20331;-55
2021/12/09 06:51:31;;;;;;;17.88;7.00;;;;;;;0.03;100.00;99345.56;5072964;27;20015;-55
2021/12/09 06:53:56;;;;;;;14.95;7.20;;;;;;;0.03;100.00;99352.47;5075568;27;20872;-56
2021/12/09 06:56:23;;;;;;;15.57;7.95;;;;;;;0.03;100.00;99357.63;5068121;28;20035;-55
2021/12/09 06:58:48;;;;;;;11.93;7.78;;;;;;;-0.01;100.00;99360.28;5053704;28;20035;-55
2021/12/09 07:01:14;;;;;;;19.63;7.85;;;;;;;-0.01;100.00;99359.44;5075169;27;20951;-56
2021/12/09 07:03:40;;;;;;;11.93;7.60;;;;;;;-0.04;100.00;99352.59;5087693;27;20030;-55
2021/12/09 07:06:06;;;;;;;19.63;8.13;;;;;;;0.06;100.00;99357.53;5066650;28;20023;-56
2021/12/09 07:08:37;;;;;;;17.20;9.10;;;;;;;0.06;100.00;99360.97;5072698;27;20027;-56
2021/12/09 07:11:03;;;;;;;15.18;8.30;;;;;;;0.04;100.00;99367.03;5080828;27;20027;-55
2021/12/09 07:13:30;;;;;;;22.60;9.25;;;;;;;0.06;100.00;99365.28;5081941;27;20032;-55
2021/12/09 07:15:57;;;;;;;20.88;9.10;;;;;;;0.15;100.00;99367.63;5081391;27;20210;-56
2021/12/09 07:18:25;;;;;;;20.92;9.93;;;;;;;0.28;100.00;99366.44;5054773;27;20099;-56
2021/12/09 07:20:53;;;;;;;16.13;8.82;;;;;;;0.38;100.00;99362.72;5075541;27;20544;-56
2021/12/09 07:23:19;;;;;;;20.13;10.13;;;;;;;0.50;100.00;99362.44;5066892;28;20880;-56
2021/12/09 07:25:44;;;;;;;21.10;9.93;;;;;;;0.57;100.00;99358.78;5053789;27;20019;-56
2021/12/09 07:28:10;;;;;;;24.70;10.18;;;;;;;0.59;100.00;99357.00;5079061;27;20762;-56
2021/12/09 07:30:35;;;;;;;13.73;9.48;;;;;;;0.48;100.00;99346.09;5061147;28;20043;-56
2021/12/09 07:33:00;;;;;;;20.00;9.27;;;;;;;0.54;100.00;99361.47;5051517;28;20059;-54
2021/12/09 07:35:30;;;;;;;20.80;9.38;;;;;;;0.37;100.00;99345.56;5064843;28;20016;-58
2021/12/09 07:37:59;;;;;;;17.95;9.73;;;;;;;0.44;100.00;99349.69;5051910;27;20023;-55
2021/12/09 07:40:25;;;;;;;16.65;9.50;;;;;;;0.36;100.00;99354.19;5065408;27;20085;-56
2021/12/09 07:42:50;;;;;;;17.13;9.57;;;;;;;0.50;100.00;99377.94;5061604;27;20848;-56
2021/12/09 07:45:16;;;;;;;16.58;9.40;;;;;;;0.64;100.00;99383.59;5049438;28;20139;-55
2021/12/09 07:47:43;;;;;;;17.25;9.13;;;;;;;0.75;100.00;99373.78;5065555;28;20030;-56
2021/12/09 07:50:13;;;;;;;13.38;7.50;;;;;;;0.82;100.00;99370.16;5065602;27;20072;-55
2021/12/09 07:52:40;;;;;;;12.50;8.70;;;;;;;0.87;100.00;99370.88;5064432;28;20131;-56
2021/12/09 07:55:05;;;;;;;21.55;10.35;;;;;;;0.99;100.00;99378.28;5051578;28;20848;-55
2021/12/09 07:57:33;;;;;;;13.23;8.02;;;;;;;1.09;100.00;99383.19;5078554;27;20126;-57
2021/12/09 07:59:59;;;;;;;14.35;9.75;;;;;;;1.15;100.00;99378.69;5052261;28;20881;-56
2021/12/09 08:02:24;;;;;;;18.80;9.52;;;;;;;1.15;100.00;99360.59;5073849;27;20123;-56
2021/12/09 08:04:49;;;;;;;19.38;9.18;;;;;;;1.27;100.00;99372.31;5070294;27;20917;-56
2021/12/09 08:07:15;;;;;;;18.20;8.73;;;;;;;1.35;100.00;99375.56;5065886;28;20016;-57
2021/12/09 08:09:40;;;;;;;27.70;9.38;;;;;;;1.44;100.00;99364.91;5058319;28;20786;-56
2021/12/09 08:12:06;;;;;;;22.60;8.52;;;;;;;1.55;100.00;99368.03;5057902;28;20024;-57
2021/12/09 08:14:31;;;;;;;11.45;7.35;;;;;;;1.63;100.00;99367.78;5065687;28;20028;-56
2021/12/09 08:17:10;;;;;;;16.67;8.20;;;;;;;1.71;100.00;99364.09;5066335;28;20035;-56
2021/12/09 08:19:35;;;;;;;14.48;8.00;;;;;;;1.80;100.00;99362.94;5064209;28;20163;-56
2021/12/09 08:22:01;;;;;;;16.48;7.85;;;;;;;1.84;100.00;99365.38;5067778;28;20859;-57
2021/12/09 08:24:26;;;;;;;14.23;7.43;;;;;;;1.92;100.00;99368.59;5066846;28;20031;-58
2021/12/09 08:26:52;;;;;;;13.77;7.43;;;;;;;1.99;100.00;99370.06;5066970;28;20027;-57
2021/12/09 08:29:17;;;;;;;16.48;7.70;;;;;;;2.03;100.00;99378.59;5066792;28;20027;-57
2021/12/09 08:31:43;;;;;;;12.93;7.78;;;;;;;2.02;100.00;99364.81;5058360;28;20028;-57
2021/12/09 08:34:08;;;;;;;11.80;6.60;;;;;;;2.06;100.00;99360.38;5061719;28;20023;-57
2021/12/09 08:36:33;;;;;;;17.83;6.97;;;;;;;2.17;100.00;99372.94;5067267;28;20694;-57
2021/12/09 08:38:59;;;;;;;16.30;6.18;;;;;;;2.22;100.00;99379.69;5066467;28;20808;-57
2021/12/09 08:41:25;;;;;;;8.73;6.07;;;;;;;2.29;100.00;99375.16;5066507;28;20031;-57
2021/12/09 08:43:51;;;;;;;11.13;5.10;;;;;;;2.33;100.00;99368.97;5068145;28;20853;-57
2021/12/09 08:46:17;;;;;;;10.98;5.78;;;;;;;2.39;100.00;99379.13;5068400;28;20056;-57
2021/12/09 08:48:43;;;;;;;8.95;5.22;;;;;;;2.17;100.00;99321.13;5051066;28;20881;-56
2021/12/09 08:51:08;;;;;;;17.38;6.63;;;;;;;2.50;100.00;99372.69;5067915;28;20027;-56
2021/12/09 08:53:34;;;;;;;16.88;5.72;;;;;;;2.57;100.00;99370.72;5077203;28;20027;-56
2021/12/09 08:56:00;;;;;;;11.85;6.30;;;;;;;2.61;100.00;99368.88;5084295;28;20027;-56
2021/12/09 08:58:27;;;;;;;16.08;6.20;;;;;;;2.63;100.00;99373.13;5083116;28;20023;-56
2021/12/09 09:00:54;;;;;;;8.85;5.75;;;;;;;2.65;100.00;99371.31;5080836;28;20023;-57
2021/12/09 09:03:19;;;;;;;12.52;5.72;;;;;;;2.48;100.00;99343.38;5044780;28;20877;-57
2021/12/09 09:05:45;;;;;;;8.68;5.43;;;;;;;2.57;100.00;99357.75;5077890;28;20130;-57
2021/12/09 09:08:10;;;;;;;11.43;5.68;;;;;;;2.81;100.00;99387.16;5064211;28;20049;-57
2021/12/09 09:10:43;;;;;;;9.60;5.05;;;;;;;2.78;100.00;99388.13;5076774;28;20908;-56
2021/12/09 09:13:16;;;;;;;19.08;5.18;;;;;;;2.79;100.00;99395.03;5071309;28;20086;-56
2021/12/09 09:15:48;;;;;;;11.75;5.18;;;;;;;2.61;100.00;99366.28;5073380;28;20061;-56
2021/12/09 09:18:13;;;;;;;13.70;5.45;;;;;;;2.86;100.00;99414.66;5076364;28;20087;-56
2021/12/09 09:20:40;;;;;;;10.73;5.07;;;;;;;2.86;100.00;99401.69;5067767;28;20140;-56
2021/12/09 09:23:08;;;;;;;9.95;4.68;;;;;;;2.64;100.00;99354.06;5067259;28;20027;-56
2021/12/09 09:25:34;;;;;;;10.93;4.82;;;;;;;2.86;100.00;99388.72;5069703;27;20552;-57
2021/12/09 09:28:00;;;;;;;9.75;4.47;;;;;;;2.87;100.00;99402.53;5078659;27;20036;-56
2021/12/09 09:30:34;;;;;;;12.40;5.38;;;;;;;2.55;100.00;99351.78;5072137;27;20101;-57
2021/12/09 09:33:00;;;;;;;10.18;4.22;;;;;;;2.89;100.00;99409.38;5068498;28;20031;-57
2021/12/09 09:35:26;;;;;;;7.47;4.50;;;;;;;2.89;100.00;99418.88;5068519;28;20027;-56
2021/12/09 09:37:51;;;;;;;12.18;4.50;;;;;;;2.92;100.00;99403.22;5069375;27;20034;-56
2021/12/09 09:40:27;;;;;;;16.50;4.53;;;;;;;2.93;100.00;99408.38;5068163;28;20848;-56
2021/12/09 09:42:59;;;;;;;8.60;4.53;;;;;;;2.79;100.00;99384.66;5068220;28;20043;-56
2021/12/09 09:45:25;;;;;;;8.27;4.47;;;;;;;2.89;100.00;99405.91;5045970;28;20024;-57
2021/12/09 09:47:51;;;;;;;8.50;4.72;;;;;;;2.81;100.00;99398.41;5060753;28;20038;-57
2021/12/09 09:50:17;;;;;;;9.13;4.78;;;;;;;2.93;100.00;99418.75;5050040;28;20081;-57
2021/12/09 09:52:42;;;;;;;14.75;4.72;;;;;;;2.53;100.00;99366.56;5067783;28;20027;-57
2021/12/09 09:55:10;;;;;;;11.73;5.28;;;;;;;2.76;100.00;99412.44;5069290;28;20035;-57
2021/12/09 09:57:36;;;;;;;13.63;4.97;;;;;;;2.71;100.00;99417.78;5067090;28;20134;-57
2021/12/09 10:00:07;;;;;;;10.55;4.80;;;;;;;2.68;100.00;99412.69;5073731;27;20092;-57
2021/12/09 10:02:33;;;;;;;15.48;5.78;;;;;;;2.59;100.00;99415.59;5089076;27;20062;-57
2021/12/09 10:05:02;;;;;;;10.93;5.72;;;;;;;2.55;100.00;99406.22;5067565;27;20020;-57
2021/12/09 10:07:30;;;;;;;9.75;5.63;;;;;;;2.25;100.00;99365.78;5068745;27;20035;-58
2021/12/09 10:09:56;;;;;;;10.27;5.55;;;;;;;2.54;100.00;99414.91;5078295;27;20028;-57
2021/12/09 10:12:21;;;;;;;12.35;5.70;;;;;;;2.54;100.00;99407.13;5067531;28;20028;-57
2021/12/09 10:14:50;;;;;;;8.02;5.60;;;;;;;2.48;100.00;99405.59;5065675;27;20032;-57
2021/12/09 10:17:23;;;;;;;10.65;5.95;;;;;;;2.46;100.00;99407.41;5045383;28;20020;-58
2021/12/09 10:19:55;;;;;;;11.27;5.60;;;;;;;2.47;100.00;99403.03;5058549;28;20049;-58
2021/12/09 10:22:32;;;;;;;11.15;5.90;;;;;;;2.46;100.00;99409.16;5061935;28;20093;-57
2021/12/09 10:25:01;;;;;;;11.82;6.20;;;;;;;2.44;100.00;99397.97;5046560;28;20213;-58
2021/12/09 10:27:30;;;;;;;11.18;6.47;;;;;;;2.48;100.00;99404.75;5063221;28;20990;-56
2021/12/09 10:30:22;;;;;;;8.65;5.80;;;;;;;2.55;100.00;99395.88;5061287;28;20031;-56
2021/12/09 10:32:49;;;;;;;9.68;5.78;;;;;;;2.66;100.00;99395.50;5055528;28;20039;-58
2021/12/09 10:35:17;;;;;;;9.52;6.47;;;;;;;2.74;100.00;99399.50;5062098;28;20557;-56
2021/12/09 10:37:45;;;;;;;9.65;6.18;;;;;;;2.75;100.00;99393.44;5058850;28;20023;-56
2021/12/09 10:40:23;;;;;;;9.45;6.05;;;;;;;2.76;100.00;99391.69;5055896;28;20031;-56
2021/12/09 10:42:51;;;;;;;12.52;5.38;;;;;;;2.72;100.00;99383.16;5056215;28;20208;-56
2021/12/09 10:45:28;;;;;;;11.90;5.72;;;;;;;2.52;100.00;99349.31;5060986;28;20024;-58
2021/12/09 10:48:16;;;;;;;12.15;5.15;;;;;;;2.84;100.00;99379.31;5066266;28;20031;-59
2021/12/09 10:50:48;;;;;;;9.45;5.65;;;;;;;2.93;100.00;99382.41;5080321;27;20035;-56
2021/12/09 10:55:44;;;;;;;11.63;4.72;;;;;;;2.64;100.00;99328.13;5076993;27;20031;-56
2021/12/09 10:58:11;;;;;;;6.47;4.32;;;;;;;2.81;100.00;99369.00;5083101;27;20077;-56
2021/12/09 11:00:46;;;;;;;9.55;5.28;;;;;;;2.75;100.00;99372.69;5066753;28;20027;-56
2021/12/09 11:03:15;;;;;;;7.72;4.60;;;;;;;2.78;100.00;99374.31;5080052;27;20046;-56
2021/12/09 11:05:44;;;;;;;7.80;4.55;;;;;;;2.79;100.00;99370.84;5066044;28;20941;-58
2021/12/09 11:08:14;;;;;;;15.02;5.25;;;;;;;2.83;100.00;99370.69;5067450;28;20039;-56
2021/12/09 11:10:46;;;;;;;8.05;4.97;;;;;;;2.77;100.00;99365.69;5066454;28;20035;-58
2021/12/09 11:13:12;;;;;;;8.18;4.60;;;;;;;2.81;100.00;99369.88;5065641;28;20038;-56
2021/12/09 11:16:05;;;;;;;12.82;5.00;;;;;;;2.81;100.00;99369.88;5059907;28;20028;-56
2021/12/09 11:18:38;;;;;;;8.10;4.75;;;;;;;2.86;100.00;99367.97;5072633;27;20070;-57
2021/12/09 11:21:29;;;;;;;8.20;5.20;;;;;;;2.92;100.00;99366.91;5078601;27;20027;-56
2021/12/09 11:24:05;;;;;;;7.32;4.70;;;;;;;2.91;100.00;99368.63;5065659;28;20043;-56
2021/12/09 11:26:56;;;;;;;6.15;4.50;;;;;;;2.80;100.00;99370.78;5065749;28;20032;-58
2021/12/09 11:29:22;;;;;;;6.13;4.20;;;;;;;2.77;100.00;99364.88;5065197;28;20067;-56
2021/12/09 11:35:09;;;;;;;7.25;4.22;;;;;;;2.81;100.00;99356.91;5054904;28;20105;-58
2021/12/09 11:37:40;;;;;;;6.15;4.40;;;;;;;2.84;100.00;99364.56;5064880;28;20162;-58